sensor_id;sensor_type;location;lat;lon;timestamp;P1;durP1;ratioP1;P2;durP2;ratioP2
14778;SDS011;7481;53.750;10.570;2024-01-15T00:00:06;9.70;;;2.33;;
14778;SDS011;7481;53.750;10.570;2024-01-15T00:04:35;13.97;;;2.30;;
14778;SDS011;7481;53.750;10.570;2024-01-15T00:08:58;7.17;;;2.30;;
14778;SDS011;7481;53.750;10.570;2024-01-15T00:13:21;5.77;;;2.07;;
14778;SDS011;7481;53.750;10.570;2024-01-15T00:17:45;7.97;;;2.03;;
14778;SDS011;7481;53.750;10.570;2024-01-15T00:22:09;6.40;;;1.90;;
14778;SDS011;7481;53.750;10.570;2024-01-15T00:26:34;8.60;;;2.53;;
14778;SDS011;7481;53.750;10.570;2024-01-15T00:30:56;5.50;;;2.43;;
14778;SDS011;7481;53.750;10.570;2024-01-15T00:35:21;10.10;;;2.37;;
14778;SDS011;7481;53.750;10.570;2024-01-15T00:39:45;9.53;;;2.77;;
14778;SDS011;7481;53.750;10.570;2024-01-15T00:44:09;13.30;;;3.33;;
14778;SDS011;7481;53.750;10.570;2024-01-15T00:48:34;11.83;;;2.10;;
14778;SDS011;7481;53.750;10.570;2024-01-15T00:52:58;7.03;;;2.03;;
14778;SDS011;7481;53.750;10.570;2024-01-15T00:57:22;12.53;;;2.90;;
14778;SDS011;7481;53.750;10.570;2024-01-15T01:01:49;13.17;;;2.80;;
14778;SDS011;7481;53.750;10.570;2024-01-15T01:06:13;9.53;;;1.93;;
14778;SDS011;7481;53.750;10.570;2024-01-15T01:10:37;5.77;;;2.00;;
14778;SDS011;7481;53.750;10.570;2024-01-15T01:15:01;10.23;;;2.43;;
14778;SDS011;7481;53.750;10.570;2024-01-15T01:19:25;7.67;;;2.10;;
14778;SDS011;7481;53.750;10.570;2024-01-15T01:23:50;6.33;;;2.10;;
14778;SDS011;7481;53.750;10.570;2024-01-15T01:28:13;6.53;;;2.00;;
14778;SDS011;7481;53.750;10.570;2024-01-15T01:32:38;5.40;;;1.70;;
14778;SDS011;7481;53.750;10.570;2024-01-15T01:37:01;6.37;;;2.03;;
14778;SDS011;7481;53.750;10.570;2024-01-15T01:41:24;8.70;;;2.43;;
14778;SDS011;7481;53.750;10.570;2024-01-15T01:45:48;7.83;;;1.90;;
14778;SDS011;7481;53.750;10.570;2024-01-15T01:50:12;7.37;;;2.17;;
14778;SDS011;7481;53.750;10.570;2024-01-15T01:54:37;10.77;;;2.37;;
14778;SDS011;7481;53.750;10.570;2024-01-15T01:59:01;5.67;;;2.10;;
14778;SDS011;7481;53.750;10.570;2024-01-15T02:03:27;5.77;;;1.70;;
14778;SDS011;7481;53.750;10.570;2024-01-15T02:07:51;6.77;;;2.33;;
14778;SDS011;7481;53.750;10.570;2024-01-15T02:12:15;7.87;;;1.93;;
14778;SDS011;7481;53.750;10.570;2024-01-15T02:16:39;9.70;;;2.17;;
14778;SDS011;7481;53.750;10.570;2024-01-15T02:21:04;8.17;;;2.63;;
14778;SDS011;7481;53.750;10.570;2024-01-15T02:25:27;9.40;;;3.10;;
14778;SDS011;7481;53.750;10.570;2024-01-15T02:29:55;8.63;;;2.07;;
14778;SDS011;7481;53.750;10.570;2024-01-15T02:34:19;9.60;;;2.20;;
14778;SDS011;7481;53.750;10.570;2024-01-15T02:38:44;9.07;;;2.87;;
14778;SDS011;7481;53.750;10.570;2024-01-15T02:43:07;6.87;;;1.83;;
14778;SDS011;7481;53.750;10.570;2024-01-15T02:47:31;9.10;;;1.97;;
14778;SDS011;7481;53.750;10.570;2024-01-15T02:51:55;16.63;;;3.27;;
14778;SDS011;7481;53.750;10.570;2024-01-15T02:56:19;6.23;;;2.17;;
14778;SDS011;7481;53.750;10.570;2024-01-15T03:00:43;7.83;;;2.50;;
14778;SDS011;7481;53.750;10.570;2024-01-15T03:05:11;7.80;;;2.07;;
14778;SDS011;7481;53.750;10.570;2024-01-15T03:09:35;9.97;;;2.20;;
14778;SDS011;7481;53.750;10.570;2024-01-15T03:13:59;13.23;;;3.17;;
14778;SDS011;7481;53.750;10.570;2024-01-15T03:18:26;8.10;;;3.20;;
14778;SDS011;7481;53.750;10.570;2024-01-15T03:22:50;5.20;;;2.67;;
14778;SDS011;7481;53.750;10.570;2024-01-15T03:27:14;9.47;;;2.07;;
14778;SDS011;7481;53.750;10.570;2024-01-15T03:31:38;10.23;;;1.60;;
14778;SDS011;7481;53.750;10.570;2024-01-15T03:36:02;6.90;;;1.93;;
14778;SDS011;7481;53.750;10.570;2024-01-15T03:40:27;9.97;;;2.13;;
14778;SDS011;7481;53.750;10.570;2024-01-15T03:44:51;7.77;;;2.20;;
14778;SDS011;7481;53.750;10.570;2024-01-15T03:49:14;7.83;;;2.23;;
14778;SDS011;7481;53.750;10.570;2024-01-15T03:53:39;7.17;;;2.10;;
14778;SDS011;7481;53.750;10.570;2024-01-15T03:58:03;13.93;;;2.10;;
14778;SDS011;7481;53.750;10.570;2024-01-15T04:02:27;10.17;;;2.87;;
14778;SDS011;7481;53.750;10.570;2024-01-15T04:06:53;6.80;;;2.40;;
14778;SDS011;7481;53.750;10.570;2024-01-15T04:11:17;10.17;;;2.10;;
14778;SDS011;7481;53.750;10.570;2024-01-15T04:15:41;12.80;;;2.70;;
14778;SDS011;7481;53.750;10.570;2024-01-15T04:20:06;8.93;;;2.10;;
14778;SDS011;7481;53.750;10.570;2024-01-15T04:24:32;7.63;;;2.37;;
14778;SDS011;7481;53.750;10.570;2024-01-15T04:28:57;10.10;;;2.47;;
14778;SDS011;7481;53.750;10.570;2024-01-15T04:33:21;10.20;;;2.30;;
14778;SDS011;7481;53.750;10.570;2024-01-15T04:37:44;10.07;;;2.93;;
14778;SDS011;7481;53.750;10.570;2024-01-15T04:42:09;10.40;;;2.37;;
14778;SDS011;7481;53.750;10.570;2024-01-15T04:46:33;14.53;;;2.80;;
14778;SDS011;7481;53.750;10.570;2024-01-15T04:50:57;16.87;;;2.73;;
14778;SDS011;7481;53.750;10.570;2024-01-15T04:55:23;10.67;;;3.87;;
14778;SDS011;7481;53.750;10.570;2024-01-15T04:59:50;12.10;;;3.27;;
14778;SDS011;7481;53.750;10.570;2024-01-15T05:04:14;15.90;;;3.17;;
14778;SDS011;7481;53.750;10.570;2024-01-15T05:08:39;19.20;;;4.50;;
14778;SDS011;7481;53.750;10.570;2024-01-15T05:13:05;13.23;;;3.00;;
14778;SDS011;7481;53.750;10.570;2024-01-15T05:17:28;20.07;;;3.70;;
14778;SDS011;7481;53.750;10.570;2024-01-15T05:21:53;12.77;;;3.50;;
14778;SDS011;7481;53.750;10.570;2024-01-15T05:26:17;13.97;;;3.60;;
14778;SDS011;7481;53.750;10.570;2024-01-15T05:30:41;20.57;;;5.03;;
14778;SDS011;7481;53.750;10.570;2024-01-15T05:35:13;16.50;;;3.93;;
14778;SDS011;7481;53.750;10.570;2024-01-15T05:39:57;28.40;;;3.87;;
14778;SDS011;7481;53.750;10.570;2024-01-15T05:44:21;14.40;;;3.40;;
14778;SDS011;7481;53.750;10.570;2024-01-15T05:48:43;20.33;;;3.80;;
14778;SDS011;7481;53.750;10.570;2024-01-15T05:53:06;16.77;;;3.47;;
14778;SDS011;7481;53.750;10.570;2024-01-15T05:57:32;11.63;;;2.60;;
14778;SDS011;7481;53.750;10.570;2024-01-15T06:02:00;19.23;;;5.00;;
14778;SDS011;7481;53.750;10.570;2024-01-15T06:06:25;20.53;;;4.07;;
14778;SDS011;7481;53.750;10.570;2024-01-15T06:10:49;11.40;;;3.43;;
14778;SDS011;7481;53.750;10.570;2024-01-15T06:15:23;24.27;;;6.28;;
14778;SDS011;7481;53.750;10.570;2024-01-15T06:19:46;16.80;;;3.53;;
14778;SDS011;7481;53.750;10.570;2024-01-15T06:24:11;18.70;;;4.07;;
14778;SDS011;7481;53.750;10.570;2024-01-15T06:28:36;17.43;;;3.70;;
14778;SDS011;7481;53.750;10.570;2024-01-15T06:33:00;16.87;;;4.97;;
14778;SDS011;7481;53.750;10.570;2024-01-15T06:37:24;20.67;;;3.70;;
14778;SDS011;7481;53.750;10.570;2024-01-15T06:41:49;17.80;;;4.00;;
14778;SDS011;7481;53.750;10.570;2024-01-15T06:46:13;19.23;;;5.37;;
14778;SDS011;7481;53.750;10.570;2024-01-15T06:50:39;15.30;;;3.97;;
14778;SDS011;7481;53.750;10.570;2024-01-15T06:55:03;15.63;;;3.97;;
14778;SDS011;7481;53.750;10.570;2024-01-15T06:59:42;13.00;;;3.60;;
14778;SDS011;7481;53.750;10.570;2024-01-15T07:04:09;18.13;;;3.97;;
14778;SDS011;7481;53.750;10.570;2024-01-15T07:08:32;22.60;;;3.63;;
14778;SDS011;7481;53.750;10.570;2024-01-15T07:13:01;13.50;;;3.30;;
14778;SDS011;7481;53.750;10.570;2024-01-15T07:17:30;17.60;;;3.47;;
14778;SDS011;7481;53.750;10.570;2024-01-15T07:21:54;16.97;;;3.30;;
14778;SDS011;7481;53.750;10.570;2024-01-15T07:26:18;15.07;;;3.57;;
14778;SDS011;7481;53.750;10.570;2024-01-15T07:30:41;10.87;;;4.00;;
14778;SDS011;7481;53.750;10.570;2024-01-15T07:35:12;13.60;;;3.23;;
14778;SDS011;7481;53.750;10.570;2024-01-15T07:39:35;11.20;;;2.90;;
14778;SDS011;7481;53.750;10.570;2024-01-15T07:43:58;11.90;;;2.67;;
14778;SDS011;7481;53.750;10.570;2024-01-15T07:48:21;11.10;;;3.10;;
14778;SDS011;7481;53.750;10.570;2024-01-15T07:52:45;8.47;;;3.13;;
14778;SDS011;7481;53.750;10.570;2024-01-15T07:57:09;13.03;;;2.80;;
14778;SDS011;7481;53.750;10.570;2024-01-15T08:01:35;13.00;;;3.07;;
14778;SDS011;7481;53.750;10.570;2024-01-15T08:05:59;10.03;;;2.30;;
14778;SDS011;7481;53.750;10.570;2024-01-15T08:10:23;8.80;;;2.50;;
14778;SDS011;7481;53.750;10.570;2024-01-15T08:14:46;10.73;;;2.27;;
14778;SDS011;7481;53.750;10.570;2024-01-15T08:19:09;5.87;;;2.10;;
14778;SDS011;7481;53.750;10.570;2024-01-15T08:23:34;6.80;;;2.03;;
14778;SDS011;7481;53.750;10.570;2024-01-15T08:27:57;16.37;;;2.53;;
14778;SDS011;7481;53.750;10.570;2024-01-15T08:32:20;10.00;;;2.57;;
14778;SDS011;7481;53.750;10.570;2024-01-15T08:36:43;7.57;;;2.60;;
14778;SDS011;7481;53.750;10.570;2024-01-15T08:41:06;12.00;;;2.47;;
14778;SDS011;7481;53.750;10.570;2024-01-15T08:45:31;7.20;;;2.00;;
14778;SDS011;7481;53.750;10.570;2024-01-15T08:49:55;6.27;;;2.10;;
14778;SDS011;7481;53.750;10.570;2024-01-15T08:54:21;18.37;;;2.67;;
14778;SDS011;7481;53.750;10.570;2024-01-15T08:58:44;11.30;;;2.43;;
14778;SDS011;7481;53.750;10.570;2024-01-15T09:03:08;7.13;;;2.30;;
14778;SDS011;7481;53.750;10.570;2024-01-15T09:07:32;11.97;;;2.20;;
14778;SDS011;7481;53.750;10.570;2024-01-15T09:11:56;11.50;;;2.70;;
14778;SDS011;7481;53.750;10.570;2024-01-15T09:16:19;11.03;;;2.77;;
14778;SDS011;7481;53.750;10.570;2024-01-15T09:20:46;11.87;;;3.20;;
14778;SDS011;7481;53.750;10.570;2024-01-15T09:25:10;11.83;;;2.10;;
14778;SDS011;7481;53.750;10.570;2024-01-15T09:29:34;11.60;;;2.63;;
14778;SDS011;7481;53.750;10.570;2024-01-15T09:33:59;6.47;;;2.23;;
14778;SDS011;7481;53.750;10.570;2024-01-15T09:38:24;10.40;;;5.13;;
14778;SDS011;7481;53.750;10.570;2024-01-15T09:42:47;11.40;;;2.90;;
14778;SDS011;7481;53.750;10.570;2024-01-15T09:47:11;12.33;;;2.80;;
14778;SDS011;7481;53.750;10.570;2024-01-15T09:51:36;7.80;;;2.50;;
14778;SDS011;7481;53.750;10.570;2024-01-15T09:55:59;12.23;;;3.20;;
14778;SDS011;7481;53.750;10.570;2024-01-15T10:00:24;12.10;;;2.90;;
14778;SDS011;7481;53.750;10.570;2024-01-15T10:04:50;13.90;;;2.60;;
14778;SDS011;7481;53.750;10.570;2024-01-15T10:09:13;13.37;;;2.83;;
14778;SDS011;7481;53.750;10.570;2024-01-15T10:13:40;12.07;;;2.90;;
14778;SDS011;7481;53.750;10.570;2024-01-15T10:18:06;7.87;;;2.20;;
14778;SDS011;7481;53.750;10.570;2024-01-15T10:22:29;10.30;;;2.80;;
14778;SDS011;7481;53.750;10.570;2024-01-15T10:26:51;12.10;;;2.27;;
14778;SDS011;7481;53.750;10.570;2024-01-15T10:31:15;6.37;;;2.10;;
14778;SDS011;7481;53.750;10.570;2024-01-15T10:35:39;8.03;;;2.90;;
14778;SDS011;7481;53.750;10.570;2024-01-15T10:40:03;6.80;;;1.90;;
14778;SDS011;7481;53.750;10.570;2024-01-15T10:44:29;5.63;;;1.57;;
14778;SDS011;7481;53.750;10.570;2024-01-15T10:48:53;7.30;;;2.43;;
14778;SDS011;7481;53.750;10.570;2024-01-15T10:53:17;8.77;;;2.87;;
14778;SDS011;7481;53.750;10.570;2024-01-15T10:57:41;6.60;;;1.80;;
14778;SDS011;7481;53.750;10.570;2024-01-15T11:02:05;4.13;;;1.80;;
14778;SDS011;7481;53.750;10.570;2024-01-15T11:06:28;5.50;;;1.47;;
14778;SDS011;7481;53.750;10.570;2024-01-15T11:11:04;3.40;;;1.43;;
14778;SDS011;7481;53.750;10.570;2024-01-15T11:15:27;5.03;;;1.30;;
14778;SDS011;7481;53.750;10.570;2024-01-15T11:19:51;5.07;;;1.97;;
14778;SDS011;7481;53.750;10.570;2024-01-15T11:24:32;4.23;;;1.03;;
14778;SDS011;7481;53.750;10.570;2024-01-15T11:28:58;2.53;;;1.27;;
14778;SDS011;7481;53.750;10.570;2024-01-15T11:33:34;2.60;;;1.33;;
14778;SDS011;7481;53.750;10.570;2024-01-15T11:37:58;2.23;;;1.00;;
14778;SDS011;7481;53.750;10.570;2024-01-15T11:42:24;2.03;;;1.20;;
14778;SDS011;7481;53.750;10.570;2024-01-15T11:46:57;4.50;;;1.30;;
14778;SDS011;7481;53.750;10.570;2024-01-15T11:51:21;4.37;;;1.07;;
14778;SDS011;7481;53.750;10.570;2024-01-15T11:55:45;4.93;;;1.40;;
14778;SDS011;7481;53.750;10.570;2024-01-15T12:00:11;1.43;;;1.20;;
14778;SDS011;7481;53.750;10.570;2024-01-15T12:04:35;2.53;;;1.33;;
14778;SDS011;7481;53.750;10.570;2024-01-15T12:09:05;4.17;;;1.30;;
14778;SDS011;7481;53.750;10.570;2024-01-15T12:13:28;9.00;;;1.50;;
14778;SDS011;7481;53.750;10.570;2024-01-15T12:17:52;7.20;;;2.80;;
14778;SDS011;7481;53.750;10.570;2024-01-15T12:22:16;5.63;;;2.70;;
14778;SDS011;7481;53.750;10.570;2024-01-15T12:26:40;4.43;;;1.10;;
14778;SDS011;7481;53.750;10.570;2024-01-15T12:31:04;2.17;;;1.30;;
14778;SDS011;7481;53.750;10.570;2024-01-15T12:35:29;4.10;;;2.07;;
14778;SDS011;7481;53.750;10.570;2024-01-15T12:39:53;2.50;;;1.20;;
14778;SDS011;7481;53.750;10.570;2024-01-15T12:44:17;4.73;;;1.13;;
14778;SDS011;7481;53.750;10.570;2024-01-15T12:48:41;5.10;;;1.20;;
14778;SDS011;7481;53.750;10.570;2024-01-15T12:53:04;1.63;;;0.83;;
14778;SDS011;7481;53.750;10.570;2024-01-15T12:57:28;1.97;;;1.00;;
14778;SDS011;7481;53.750;10.570;2024-01-15T13:01:51;1.73;;;0.90;;
14778;SDS011;7481;53.750;10.570;2024-01-15T13:06:15;1.77;;;1.20;;
14778;SDS011;7481;53.750;10.570;2024-01-15T13:10:39;3.40;;;1.20;;
14778;SDS011;7481;53.750;10.570;2024-01-15T13:15:04;2.50;;;1.10;;
14778;SDS011;7481;53.750;10.570;2024-01-15T13:19:28;4.07;;;1.30;;
14778;SDS011;7481;53.750;10.570;2024-01-15T13:23:52;2.73;;;1.40;;
14778;SDS011;7481;53.750;10.570;2024-01-15T13:28:16;3.40;;;1.10;;
14778;SDS011;7481;53.750;10.570;2024-01-15T13:32:40;2.27;;;1.33;;
14778;SDS011;7481;53.750;10.570;2024-01-15T13:37:03;2.20;;;0.90;;
14778;SDS011;7481;53.750;10.570;2024-01-15T13:41:27;2.17;;;1.00;;
14778;SDS011;7481;53.750;10.570;2024-01-15T13:45:52;3.37;;;1.17;;
14778;SDS011;7481;53.750;10.570;2024-01-15T13:50:17;3.10;;;1.00;;
14778;SDS011;7481;53.750;10.570;2024-01-15T13:54:41;3.90;;;1.50;;
14778;SDS011;7481;53.750;10.570;2024-01-15T13:59:11;2.97;;;1.10;;
14778;SDS011;7481;53.750;10.570;2024-01-15T14:03:36;1.80;;;1.37;;
14778;SDS011;7481;53.750;10.570;2024-01-15T14:08:00;1.83;;;1.10;;
14778;SDS011;7481;53.750;10.570;2024-01-15T14:12:23;2.13;;;1.30;;
14778;SDS011;7481;53.750;10.570;2024-01-15T14:16:49;4.77;;;2.00;;
14778;SDS011;7481;53.750;10.570;2024-01-15T14:21:12;2.60;;;1.47;;
14778;SDS011;7481;53.750;10.570;2024-01-15T14:25:36;3.93;;;1.67;;
14778;SDS011;7481;53.750;10.570;2024-01-15T14:30:01;2.57;;;1.30;;
14778;SDS011;7481;53.750;10.570;2024-01-15T14:34:25;3.63;;;1.60;;
14778;SDS011;7481;53.750;10.570;2024-01-15T14:38:48;4.00;;;1.40;;
14778;SDS011;7481;53.750;10.570;2024-01-15T14:43:11;5.60;;;1.30;;
14778;SDS011;7481;53.750;10.570;2024-01-15T14:47:35;2.07;;;1.37;;
14778;SDS011;7481;53.750;10.570;2024-01-15T14:51:59;3.97;;;1.10;;
14778;SDS011;7481;53.750;10.570;2024-01-15T14:56:24;4.40;;;1.53;;
14778;SDS011;7481;53.750;10.570;2024-01-15T15:00:49;3.03;;;1.50;;
14778;SDS011;7481;53.750;10.570;2024-01-15T15:05:12;1.93;;;1.10;;
14778;SDS011;7481;53.750;10.570;2024-01-15T15:09:39;3.37;;;1.13;;
14778;SDS011;7481;53.750;10.570;2024-01-15T15:14:02;3.17;;;1.33;;
14778;SDS011;7481;53.750;10.570;2024-01-15T15:18:26;2.20;;;1.73;;
14778;SDS011;7481;53.750;10.570;2024-01-15T15:22:54;3.47;;;1.43;;
14778;SDS011;7481;53.750;10.570;2024-01-15T15:27:20;3.83;;;1.50;;
14778;SDS011;7481;53.750;10.570;2024-01-15T15:31:59;2.70;;;1.20;;
14778;SDS011;7481;53.750;10.570;2024-01-15T15:36:22;3.10;;;1.43;;
14778;SDS011;7481;53.750;10.570;2024-01-15T15:40:46;3.10;;;1.40;;
14778;SDS011;7481;53.750;10.570;2024-01-15T15:45:10;2.53;;;1.50;;
14778;SDS011;7481;53.750;10.570;2024-01-15T15:49:36;4.10;;;1.50;;
14778;SDS011;7481;53.750;10.570;2024-01-15T15:54:04;2.60;;;2.07;;
14778;SDS011;7481;53.750;10.570;2024-01-15T15:58:28;2.87;;;1.77;;
14778;SDS011;7481;53.750;10.570;2024-01-15T16:02:52;7.70;;;1.73;;
14778;SDS011;7481;53.750;10.570;2024-01-15T16:07:17;2.93;;;2.60;;
14778;SDS011;7481;53.750;10.570;2024-01-15T16:11:42;3.77;;;3.10;;
14778;SDS011;7481;53.750;10.570;2024-01-15T16:16:06;4.30;;;3.37;;
14778;SDS011;7481;53.750;10.570;2024-01-15T16:20:50;3.50;;;3.20;;
14778;SDS011;7481;53.750;10.570;2024-01-15T16:25:34;6.60;;;4.30;;
14778;SDS011;7481;53.750;10.570;2024-01-15T16:30:02;6.27;;;3.17;;
14778;SDS011;7481;53.750;10.570;2024-01-15T16:34:38;4.10;;;2.73;;
14778;SDS011;7481;53.750;10.570;2024-01-15T16:39:02;2.13;;;1.93;;
14778;SDS011;7481;53.750;10.570;2024-01-15T16:43:27;4.13;;;2.03;;
14778;SDS011;7481;53.750;10.570;2024-01-15T16:47:51;6.50;;;2.57;;
14778;SDS011;7481;53.750;10.570;2024-01-15T16:52:15;7.87;;;3.20;;
14778;SDS011;7481;53.750;10.570;2024-01-15T16:56:38;4.53;;;2.67;;
14778;SDS011;7481;53.750;10.570;2024-01-15T17:01:04;3.83;;;2.07;;
14778;SDS011;7481;53.750;10.570;2024-01-15T17:05:30;4.23;;;2.33;;
14778;SDS011;7481;53.750;10.570;2024-01-15T17:09:53;5.07;;;2.90;;
14778;SDS011;7481;53.750;10.570;2024-01-15T17:14:25;8.00;;;3.73;;
14778;SDS011;7481;53.750;10.570;2024-01-15T17:18:50;7.03;;;2.93;;
14778;SDS011;7481;53.750;10.570;2024-01-15T17:23:13;5.73;;;2.83;;
14778;SDS011;7481;53.750;10.570;2024-01-15T17:27:38;3.43;;;2.40;;
14778;SDS011;7481;53.750;10.570;2024-01-15T17:32:02;5.67;;;3.13;;
14778;SDS011;7481;53.750;10.570;2024-01-15T17:36:26;5.57;;;3.30;;
14778;SDS011;7481;53.750;10.570;2024-01-15T17:40:49;4.50;;;2.80;;
14778;SDS011;7481;53.750;10.570;2024-01-15T17:45:14;4.73;;;2.70;;
14778;SDS011;7481;53.750;10.570;2024-01-15T17:49:38;5.40;;;2.90;;
14778;SDS011;7481;53.750;10.570;2024-01-15T17:54:02;5.37;;;3.20;;
14778;SDS011;7481;53.750;10.570;2024-01-15T17:58:26;5.53;;;3.27;;
14778;SDS011;7481;53.750;10.570;2024-01-15T18:02:51;6.90;;;4.17;;
14778;SDS011;7481;53.750;10.570;2024-01-15T18:07:15;6.10;;;3.70;;
14778;SDS011;7481;53.750;10.570;2024-01-15T18:11:43;7.70;;;3.63;;
14778;SDS011;7481;53.750;10.570;2024-01-15T18:16:08;7.57;;;3.80;;
14778;SDS011;7481;53.750;10.570;2024-01-15T18:20:31;6.30;;;3.30;;
14778;SDS011;7481;53.750;10.570;2024-01-15T18:24:55;5.80;;;3.17;;
14778;SDS011;7481;53.750;10.570;2024-01-15T18:29:27;4.20;;;2.60;;
14778;SDS011;7481;53.750;10.570;2024-01-15T18:33:54;5.53;;;2.90;;
14778;SDS011;7481;53.750;10.570;2024-01-15T18:38:25;4.63;;;2.50;;
14778;SDS011;7481;53.750;10.570;2024-01-15T18:42:49;3.17;;;2.00;;
14778;SDS011;7481;53.750;10.570;2024-01-15T18:47:11;3.73;;;2.07;;
14778;SDS011;7481;53.750;10.570;2024-01-15T18:51:38;9.13;;;2.07;;
14778;SDS011;7481;53.750;10.570;2024-01-15T18:56:02;5.17;;;1.90;;
14778;SDS011;7481;53.750;10.570;2024-01-15T19:00:26;3.67;;;1.73;;
14778;SDS011;7481;53.750;10.570;2024-01-15T19:04:51;2.60;;;1.93;;
14778;SDS011;7481;53.750;10.570;2024-01-15T19:09:15;5.27;;;2.07;;
14778;SDS011;7481;53.750;10.570;2024-01-15T19:13:39;4.67;;;1.77;;
14778;SDS011;7481;53.750;10.570;2024-01-15T19:18:01;4.27;;;1.63;;
14778;SDS011;7481;53.750;10.570;2024-01-15T19:22:24;4.30;;;2.00;;
14778;SDS011;7481;53.750;10.570;2024-01-15T19:26:48;5.30;;;2.20;;
14778;SDS011;7481;53.750;10.570;2024-01-15T19:31:14;4.80;;;2.30;;
14778;SDS011;7481;53.750;10.570;2024-01-15T19:35:41;5.13;;;2.27;;
14778;SDS011;7481;53.750;10.570;2024-01-15T19:40:06;7.33;;;2.70;;
14778;SDS011;7481;53.750;10.570;2024-01-15T19:44:30;4.70;;;2.50;;
14778;SDS011;7481;53.750;10.570;2024-01-15T19:48:56;4.30;;;2.23;;
14778;SDS011;7481;53.750;10.570;2024-01-15T19:53:19;3.87;;;2.13;;
14778;SDS011;7481;53.750;10.570;2024-01-15T19:57:42;6.23;;;2.07;;
14778;SDS011;7481;53.750;10.570;2024-01-15T20:02:08;6.67;;;2.37;;
14778;SDS011;7481;53.750;10.570;2024-01-15T20:06:32;4.90;;;2.10;;
14778;SDS011;7481;53.750;10.570;2024-01-15T20:10:58;5.30;;;2.37;;
14778;SDS011;7481;53.750;10.570;2024-01-15T20:15:22;6.40;;;3.10;;
14778;SDS011;7481;53.750;10.570;2024-01-15T20:19:46;4.47;;;2.63;;
14778;SDS011;7481;53.750;10.570;2024-01-15T20:24:11;4.43;;;2.20;;
14778;SDS011;7481;53.750;10.570;2024-01-15T20:28:35;3.40;;;2.00;;
14778;SDS011;7481;53.750;10.570;2024-01-15T20:32:59;5.47;;;2.53;;
14778;SDS011;7481;53.750;10.570;2024-01-15T20:37:23;4.53;;;1.70;;
14778;SDS011;7481;53.750;10.570;2024-01-15T20:41:47;6.67;;;1.90;;
14778;SDS011;7481;53.750;10.570;2024-01-15T20:46:12;4.30;;;1.90;;
14778;SDS011;7481;53.750;10.570;2024-01-15T20:50:36;3.67;;;2.03;;
14778;SDS011;7481;53.750;10.570;2024-01-15T20:55:00;4.37;;;2.13;;
14778;SDS011;7481;53.750;10.570;2024-01-15T20:59:23;6.47;;;3.90;;
14778;SDS011;7481;53.750;10.570;2024-01-15T21:03:48;4.53;;;2.67;;
14778;SDS011;7481;53.750;10.570;2024-01-15T21:08:11;4.50;;;2.50;;
14778;SDS011;7481;53.750;10.570;2024-01-15T21:12:34;5.43;;;2.10;;
14778;SDS011;7481;53.750;10.570;2024-01-15T21:16:57;2.77;;;2.27;;
14778;SDS011;7481;53.750;10.570;2024-01-15T21:21:21;4.43;;;2.33;;
14778;SDS011;7481;53.750;10.570;2024-01-15T21:25:45;5.63;;;2.53;;
14778;SDS011;7481;53.750;10.570;2024-01-15T21:30:12;3.10;;;2.20;;
14778;SDS011;7481;53.750;10.570;2024-01-15T21:34:37;4.00;;;2.50;;
14778;SDS011;7481;53.750;10.570;2024-01-15T21:39:04;7.40;;;2.83;;
14778;SDS011;7481;53.750;10.570;2024-01-15T21:43:28;4.07;;;2.67;;
14778;SDS011;7481;53.750;10.570;2024-01-15T21:47:53;3.27;;;2.27;;
14778;SDS011;7481;53.750;10.570;2024-01-15T21:52:17;5.03;;;2.50;;
14778;SDS011;7481;53.750;10.570;2024-01-15T21:56:40;2.70;;;2.20;;
14778;SDS011;7481;53.750;10.570;2024-01-15T22:01:04;5.23;;;2.67;;
14778;SDS011;7481;53.750;10.570;2024-01-15T22:05:34;3.80;;;2.43;;
14778;SDS011;7481;53.750;10.570;2024-01-15T22:09:58;3.57;;;2.13;;
14778;SDS011;7481;53.750;10.570;2024-01-15T22:14:22;3.60;;;2.70;;
14778;SDS011;7481;53.750;10.570;2024-01-15T22:18:46;5.07;;;2.90;;
14778;SDS011;7481;53.750;10.570;2024-01-15T22:23:10;5.13;;;2.83;;
14778;SDS011;7481;53.750;10.570;2024-01-15T22:27:35;5.83;;;2.67;;
14778;SDS011;7481;53.750;10.570;2024-01-15T22:31:59;3.80;;;2.70;;
14778;SDS011;7481;53.750;10.570;2024-01-15T22:36:23;3.83;;;2.67;;
14778;SDS011;7481;53.750;10.570;2024-01-15T22:40:47;5.30;;;2.50;;
14778;SDS011;7481;53.750;10.570;2024-01-15T22:45:10;7.23;;;2.80;;
14778;SDS011;7481;53.750;10.570;2024-01-15T22:49:38;6.70;;;2.80;;
14778;SDS011;7481;53.750;10.570;2024-01-15T22:54:02;3.93;;;2.40;;
14778;SDS011;7481;53.750;10.570;2024-01-15T22:58:25;3.50;;;2.27;;
14778;SDS011;7481;53.750;10.570;2024-01-15T23:02:49;4.50;;;2.40;;
14778;SDS011;7481;53.750;10.570;2024-01-15T23:07:15;4.50;;;2.63;;
14778;SDS011;7481;53.750;10.570;2024-01-15T23:11:39;6.03;;;2.63;;
14778;SDS011;7481;53.750;10.570;2024-01-15T23:16:02;2.73;;;1.93;;
14778;SDS011;7481;53.750;10.570;2024-01-15T23:20:28;3.57;;;2.27;;
14778;SDS011;7481;53.750;10.570;2024-01-15T23:24:52;3.50;;;2.10;;
14778;SDS011;7481;53.750;10.570;2024-01-15T23:29:15;4.33;;;2.40;;
14778;SDS011;7481;53.750;10.570;2024-01-15T23:33:39;3.37;;;2.47;;
14778;SDS011;7481;53.750;10.570;2024-01-15T23:38:02;3.00;;;2.13;;
14778;SDS011;7481;53.750;10.570;2024-01-15T23:42:26;3.77;;;2.73;;
14778;SDS011;7481;53.750;10.570;2024-01-15T23:46:49;5.03;;;2.50;;
14778;SDS011;7481;53.750;10.570;2024-01-15T23:51:13;5.27;;;2.63;;
14778;SDS011;7481;53.750;10.570;2024-01-15T23:55:36;4.80;;;2.90;;
14778;SDS011;7481;53.750;10.570;2024-01-15T23:59:59;6.53;;;3.93;;
